Kent, Oregon
Current Conditions -  °F | °C
As of 5:53 AM on Thursday 23 Oct 2014 (Local Time) from KDLS Reporting Station
Overcast Overcast  
Wind Chill: 54°   Ceiling: 4400
Heat Index: 54°   Visibility: 10mi
Dew Point: 51°   Wind: 5mph
Humidity: 90%   Direction: 340°NNW
Pressure: 29.77"   Gusts: NA
Location:  45.2°N, 120.7°W
Report Text: KDLS 231253Z AUTO 34004KT 10SM BKN044 OVC065 12/11 A2977 RMK AO2 SLP082 T01220106
Loading
Personal Weather Stations






























Interactive Weather Map
Tropical Storm Tracking
New forecast layout! Learn more

10-Day Weather Forecast

Advertisements
Track Severe Weather on mobile